»·PEaware :: DAL1524 KLAS-KSLC

DAL1524 :: KLAS-KSLC

FLIGHT INFORMATION

Flight Status: Arrived
Operator:
Delta Air Lines
More flights by this operator :: More flights under this callsign
Pilot: Matteo S. (9898)
Aircraft: AIRBUS A321
(A321)
More flights by this aircraft type
Origin: KLAS McCarran Intl
United States
Destination: KSLC Salt Lake City Intl
United States
More flights between these airports :: More routes between these airports
Route: +STAAV8 MLF QWENN5
File this flight plan on PilotEdge
Remarks:
Altitude:
(Current/Filed)
35,000ft
Speed:
(Current/Filed)
450kts
Departed: 02-Jan-20 03:47 PM
Arrived: 02-Jan-20 04:50 PM
Distance/Time
Traveled:
319nm/1:03
Distance/Time
To Go:
Arrived

Flight Plot

Page will automatically refresh every two minutes.

Flight plan parsing failed; only flown route is shown


Map Options




Map Legend


Flown Route
Filed Route
Departure Airport
Arrival Airport
Navaid (VOR, NDB)
Fix

Horizontal Profiles

Position Reports

Time Latitude Longitude Heading Altitude Ground
Speed
02-Jan-20 15:24 36.080388 -115.134741 272 2195ft 0kts
02-Jan-20 15:25 36.080388 -115.134741 272 2195ft 0kts
02-Jan-20 15:26 36.080388 -115.134741 272 2195ft 0kts
02-Jan-20 15:27 36.080388 -115.134741 272 2195ft 0kts
02-Jan-20 15:28 36.080388 -115.134741 272 2195ft 0kts
02-Jan-20 15:29 36.080388 -115.134741 272 2195ft 0kts
02-Jan-20 15:30 36.080388 -115.134741 272 2195ft 0kts
02-Jan-20 15:31 36.080388 -115.134741 272 2195ft 0kts
02-Jan-20 15:32 36.080388 -115.134741 272 2195ft 0kts
02-Jan-20 15:33 36.080388 -115.134741 272 2195ft 0kts
02-Jan-20 15:34 36.080388 -115.134741 272 2195ft 0kts
02-Jan-20 15:35 36.080384 -115.134620 269 2195ft 2kts
02-Jan-20 15:36 36.080557 -115.133881 222 2195ft 2kts
02-Jan-20 15:37 36.080768 -115.133746 180 2195ft 0kts
02-Jan-20 15:38 36.080767 -115.133746 179 2195ft 0kts
02-Jan-20 15:39 36.080765 -115.133746 179 2195ft 0kts
02-Jan-20 15:40 36.079962 -115.133744 179 2195ft 4kts
02-Jan-20 15:41 36.078956 -115.133743 179 2195ft 2kts
02-Jan-20 15:42 36.077743 -115.133684 154 2195ft 8kts
02-Jan-20 15:43 36.077559 -115.128982 90 2195ft 17kts
02-Jan-20 15:44 36.077568 -115.123299 89 2195ft 15kts
02-Jan-20 15:45 36.076838 -115.121203 182 2195ft 4kts
02-Jan-20 15:46 36.076433 -115.129652 269 2195ft 105kts
02-Jan-20 15:47 36.075749 -115.189022 273 4041ft 192kts
02-Jan-20 15:48 36.076642 -115.258191 273 5913ft 217kts
02-Jan-20 15:49 36.104472 -115.318730 358 8137ft 229kts
02-Jan-20 15:50 36.159366 -115.277662 42 10792ft 237kts
02-Jan-20 15:51 36.191208 -115.195168 68 11956ft 318kts
02-Jan-20 15:52 36.197030 -115.075448 81 13367ft 373kts
02-Jan-20 15:53 36.198851 -114.940215 81 15142ft 401kts
02-Jan-20 15:54 36.208645 -114.803026 59 17197ft 391kts
02-Jan-20 15:55 36.279532 -114.709765 31 19128ft 375kts
02-Jan-20 15:56 36.362164 -114.628822 30 20863ft 382kts
02-Jan-20 15:57 36.447232 -114.547728 29 22364ft 388kts
02-Jan-20 15:58 36.533869 -114.465387 29 23609ft 395kts
02-Jan-20 15:59 36.626120 -114.392435 24 24855ft 393kts
02-Jan-20 16:00 36.718981 -114.320527 24 26007ft 395kts
02-Jan-20 16:01 36.812632 -114.247841 24 27037ft 396kts
02-Jan-20 16:02 36.906111 -114.175052 24 28109ft 394kts
02-Jan-20 16:03 36.997866 -114.103386 23 29442ft 383kts
02-Jan-20 16:04 37.087166 -114.033463 23 30454ft 378kts
02-Jan-20 16:05 37.176217 -113.963528 23 31388ft 375kts
02-Jan-20 16:06 37.265146 -113.893511 23 32121ft 378kts
02-Jan-20 16:07 37.354030 -113.823333 23 32816ft 380kts
02-Jan-20 16:08 37.443020 -113.752803 23 33902ft 373kts
02-Jan-20 16:09 37.530691 -113.683188 23 34625ft 373kts
02-Jan-20 16:10 37.619215 -113.612717 23 35021ft 381kts
02-Jan-20 16:11 37.709702 -113.540189 23 35090ft 385kts
02-Jan-20 16:12 37.799827 -113.468031 23 35092ft 384kts
02-Jan-20 16:13 37.890349 -113.395774 23 35092ft 384kts
02-Jan-20 16:14 37.980678 -113.323381 23 35094ft 384kts
02-Jan-20 16:15 38.070348 -113.250296 23 35097ft 381kts
02-Jan-20 16:16 38.159552 -113.177894 23 35101ft 381kts
02-Jan-20 16:17 38.248869 -113.105261 23 35107ft 379kts
02-Jan-20 16:18 38.337586 -113.032911 23 35108ft 378kts
02-Jan-20 16:19 38.430200 -112.975766 15 35108ft 368kts
02-Jan-20 16:20 38.524329 -112.924386 15 35108ft 367kts
02-Jan-20 16:21 38.618080 -112.873294 15 35109ft 366kts
02-Jan-20 16:22 38.711917 -112.822029 15 35111ft 365kts
02-Jan-20 16:23 38.805558 -112.770745 15 35115ft 365kts
02-Jan-20 16:24 38.898901 -112.719468 15 35120ft 365kts
02-Jan-20 16:25 38.992107 -112.668124 15 34599ft 365kts
02-Jan-20 16:26 39.084761 -112.616895 15 32067ft 354kts
02-Jan-20 16:27 39.173914 -112.567461 14 29566ft 342kts
02-Jan-20 16:28 39.260386 -112.519426 14 27069ft 336kts
02-Jan-20 16:29 39.345874 -112.471805 14 24571ft 335kts
02-Jan-20 16:30 39.428538 -112.425566 14 23139ft 313kts
02-Jan-20 16:31 39.508164 -112.381003 15 21946ft 310kts
02-Jan-20 16:32 39.587043 -112.336725 16 20668ft 310kts
02-Jan-20 16:33 39.665471 -112.292576 17 19468ft 306kts
02-Jan-20 16:34 39.743890 -112.248328 18 18317ft 307kts
02-Jan-20 16:35 39.821952 -112.204168 18 17178ft 306kts
02-Jan-20 16:36 39.900111 -112.159837 19 16030ft 307kts
02-Jan-20 16:37 39.978866 -112.114658 20 15020ft 321kts
02-Jan-20 16:38 40.060944 -112.064886 21 13688ft 326kts
02-Jan-20 16:39 40.143437 -112.014956 21 12571ft 327kts
02-Jan-20 16:40 40.225836 -111.965025 22 11457ft 328kts
02-Jan-20 16:41 40.309972 -111.936398 2 11009ft 307kts
02-Jan-20 16:42 40.395109 -111.930913 356 11002ft 307kts
02-Jan-20 16:43 40.479498 -111.939283 353 10305ft 299kts
02-Jan-20 16:44 40.559119 -111.948184 354 8519ft 276kts
02-Jan-20 16:45 40.632441 -111.956576 354 7006ft 240kts
02-Jan-20 16:46 40.689264 -111.963142 353 5910ft 179kts
02-Jan-20 16:47 40.735194 -111.968461 353 5037ft 154kts
02-Jan-20 16:48 40.777984 -111.973500 353 4263ft 152kts
02-Jan-20 16:49 40.796947 -111.975989 277 4241ft 14kts
02-Jan-20 16:50 40.796782 -111.977606 241 4241ft 9kts
02-Jan-20 16:51 40.791291 -111.977299 174 4241ft 17kts
02-Jan-20 16:52 40.789238 -111.979914 175 4241ft 11kts
02-Jan-20 16:53 40.788212 -111.979243 84 4241ft 0kts
02-Jan-20 16:54 40.788220 -111.979144 84 4241ft 0kts
02-Jan-20 16:55 40.788220 -111.979144 84 4241ft 0kts
02-Jan-20 16:56 40.788220 -111.979144 84 4241ft 0kts

Navigation Log

Ident Type
Flight plan parsing failed, navigation log unavailable